Bara Ar Vro — FQBA — position and weather

sailwx.info

Track history (hours):
 
Tides and Currents Weather Stations Pressure Air Temp Water Temp Dewpoint Dewpoint Depression Visibility Wind Speed Wind Dir Waves Ship Positions

Bara Ar Vro

Last reported at 2018-Jan-06 15:58 UTC. Time now 2018-Jan-18 02:25 UTC.
Position N 48°15' W 005°34'.
Warning: this ship's position is 11 days out of date.

Length 22 m; draft 3.8 m.

Type: Fishing. MMSI: 228935000.

Date/timePositionNaut miles runAvg speedWind from/ knotsBaromVisibWave heightAir tempDewpointWater temp
2018-Jan-06 15:58N 48°15' W 005°34'10 9.7
2018-Jan-06 14:58N 48°09' W 005°22'10 9.7
2018-Jan-06 13:53N 48°04' W 005°08'410.5
2018-Jan-06 13:31N 48°02' W 005°03'5 9.9
2018-Jan-06 13:01N 47°59' W 004°57'5 9.7
2018-Jan-06 12:31N 47°56' W 004°51'5 9.6
2018-Jan-06 12:01N 47°53' W 004°45'5 9.4
2018-Jan-06 11:30N 47°51' W 004°39'5 9.1
2018-Jan-06 10:59N 47°48' W 004°33'9 8.9
2018-Jan-06 09:58N 47°46' W 004°20'  
Track history (hours):
 
Tides and Currents Weather Stations Pressure Air Temp Water Temp Dewpoint Dewpoint Depression Visibility Wind Speed Wind Dir Waves Ship Positions

Bara Ar Vro

Last reported at 2018-Jan-06 15:58 UTC. Time now 2018-Jan-18 02:25 UTC.
Position N 48°15' W 005°34'.
Warning: this ship's position is 11 days out of date.

Length 22 m; draft 3.8 m.

Type: Fishing. MMSI: 228935000.

Date/timePositionNaut miles runAvg speedWind from/ knotsBaromVisibWave heightAir tempDewpointWater temp
2018-Jan-06 15:58N 48°15' W 005°34'10 9.7
2018-Jan-06 14:58N 48°09' W 005°22'10 9.7
2018-Jan-06 13:53N 48°04' W 005°08'410.5
2018-Jan-06 13:31N 48°02' W 005°03'5 9.9
2018-Jan-06 13:01N 47°59' W 004°57'5 9.7
2018-Jan-06 12:31N 47°56' W 004°51'5 9.6
2018-Jan-06 12:01N 47°53' W 004°45'5 9.4
2018-Jan-06 11:30N 47°51' W 004°39'5 9.1
2018-Jan-06 10:59N 47°48' W 004°33'9 8.9
2018-Jan-06 09:58N 47°46' W 004°20'  

Dump ship's entire track history